Pagina principală
METAR-TAF:

METAR-TAF

Aeroporturi :

Aeroportul Internațional Satu Mare

Satu Mare, România

Latitudine: 47-48N, longitudine: 022-53E, elevație: 123 m

Observații meteo curente

Raportul a fost făcut în urmă cu 25 de minute, la 16:30 UTC
Vânt 5 kt de la Sud-est
Temperatură 24°C
Umiditate 38%
Presiune 1012 hPa
Vizibilitate de 10 km sau mai mult

METAR: LRSM 281630Z AUTO 14005KT 9999 SCT070/// BKN085/// 24/09 Q1012

Ora: 19:55 (16:55 UTC)

Prognoză

Raportul a fost făcut în urmă cu 2 ore și 55 de minute, la 14:00 UTC
Prognoză valabilă de la 28 ora 15 UTC la 29 ora 00 UTC
Vânt 8 kt de la Nord-est
Vizibilitate de 10 km sau mai mult
Nori puțini la o înălțime de 4500 picior

TAF: LRSM 281400Z 2815/2900 05008KT 9999 FEW045

Observații și prognoze meteo pentru peste 4.000 de aeroporturi (rapoarte METAR și TAF).

Stațiile disponibile sunt reprezentate pe hartă prin puncte galbene și roșii.

Țineți indicatorul mouse-ului pe punctul dorit pentru a vedea denumirea stației.

Apoi, faceți clic pentru a vedea observațiile și prognozele meteorologice.

Pentru a schimba harta: Pentru mărire, faceți clic pe butoanele verzi cu cruce neagră; pentru micșorare, pe butonul verde cu o liniuță; pentru hărți învecinate, pe săgețile verzi.


METAR-TAF: